Time;durP1;ratioP1;P1;durP2;ratioP2;P2;SDS_P1;SDS_P2;PMS_P1;PMS_P2;Temp;Humidity;BMP_temperature;BMP_pressure;BME280_temperature;BME280_humidity;BME280_pressure;Samples;Min_cycle;Max_cycle;Signal;HPM_P1;HPM_P2
2023/02/10 00:02:22;;;;;;;7.27;4.37;;;;;;;;;;5098227;27;20063;-65
2023/02/10 00:04:48;;;;;;;5.73;3.53;;;;;;;;;;5081546;27;20503;-65
2023/02/10 00:07:14;;;;;;;9.33;3.90;;;;;;;;;;5098268;27;20095;-65
2023/02/10 00:09:39;;;;;;;7.23;3.90;;;;;;;;;;5097994;27;20070;-65
2023/02/10 00:12:07;;;;;;;6.83;4.10;;;;;;;;;;5081650;27;20027;-65
2023/02/10 00:14:33;;;;;;;6.23;4.60;;;;;;;;;;5081383;28;20062;-66
2023/02/10 00:16:59;;;;;;;7.53;3.63;;;;;;;;;;5083886;28;20090;-66
2023/02/10 00:19:26;;;;;;;8.07;3.93;;;;;;;;;;5091208;28;20393;-66
2023/02/10 00:21:51;;;;;;;6.80;4.27;;;;;;;;;;5074337;28;20047;-66
2023/02/10 00:24:17;;;;;;;6.53;4.07;;;;;;;;;;5074394;28;20031;-65
2023/02/10 00:26:43;;;;;;;5.63;4.10;;;;;;;;;;5057568;28;20036;-66
2023/02/10 00:29:09;;;;;;;8.00;3.83;;;;;;;;;;5057969;28;20032;-67
2023/02/10 00:31:34;;;;;;;8.77;4.20;;;;;;;;;;5074566;28;20355;-65
2023/02/10 00:34:00;;;;;;;4.80;3.37;;;;;;;;;;5074264;28;20417;-65
2023/02/10 00:36:26;;;;;;;6.27;3.93;;;;;;;;;;5074314;28;20032;-65
2023/02/10 00:38:52;;;;;;;6.47;3.53;;;;;;;;;;5074127;28;20158;-65
2023/02/10 00:41:20;;;;;;;5.07;3.47;;;;;;;;;;5074207;28;20086;-65
2023/02/10 00:43:46;;;;;;;5.93;3.93;;;;;;;;;;5074158;28;20058;-66
2023/02/10 00:46:12;;;;;;;7.43;3.97;;;;;;;;;;5057456;28;20347;-66
2023/02/10 00:48:38;;;;;;;9.27;4.40;;;;;;;;;;5078614;28;20122;-65
2023/02/10 00:51:04;;;;;;;6.27;3.97;;;;;;;;;;5061576;28;20119;-66
2023/02/10 00:53:29;;;;;;;5.73;4.00;;;;;;;;;;5095084;28;20032;-66
2023/02/10 00:55:55;;;;;;;9.77;4.63;;;;;;;;;;5077975;28;20032;-66
2023/02/10 00:58:21;;;;;;;9.27;4.67;;;;;;;;;;5094866;28;20032;-66
2023/02/10 01:00:47;;;;;;;7.37;4.20;;;;;;;;;;5078116;28;20489;-66
2023/02/10 01:03:12;;;;;;;7.70;4.80;;;;;;;;;;5077849;28;20100;-65
2023/02/10 01:05:38;;;;;;;10.03;4.33;;;;;;;;;;5078315;28;20081;-66
2023/02/10 01:08:04;;;;;;;8.03;4.17;;;;;;;;;;5077882;28;20043;-65
2023/02/10 01:10:34;;;;;;;7.43;4.20;;;;;;;;;;5077801;28;20036;-66
2023/02/10 01:13:00;;;;;;;9.82;4.18;;;;;;;;;;5077739;28;20051;-65
2023/02/10 01:15:26;;;;;;;7.87;4.10;;;;;;;;;;5110740;28;20043;-66
2023/02/10 01:17:52;;;;;;;5.73;3.60;;;;;;;;;;5076866;28;20060;-66
2023/02/10 01:20:18;;;;;;;6.53;3.60;;;;;;;;;;5060461;28;20044;-66
2023/02/10 01:22:44;;;;;;;6.73;3.73;;;;;;;;;;5077265;28;20085;-66
2023/02/10 01:25:09;;;;;;;7.60;3.97;;;;;;;;;;5060943;28;20119;-65
2023/02/10 01:27:35;;;;;;;7.77;4.40;;;;;;;;;;5109875;28;20044;-66
2023/02/10 01:30:01;;;;;;;10.30;4.13;;;;;;;;;;5060745;28;20040;-65
2023/02/10 01:32:30;;;;;;;7.87;3.70;;;;;;;;;;5092721;28;20032;-66
2023/02/10 01:34:55;;;;;;;7.40;4.20;;;;;;;;;;5074655;28;20085;-66
2023/02/10 01:37:21;;;;;;;7.50;3.90;;;;;;;;;;5092861;28;20040;-66
2023/02/10 01:39:49;;;;;;;6.33;4.07;;;;;;;;;;5060780;28;20121;-65
2023/02/10 01:42:15;;;;;;;5.90;3.73;;;;;;;;;;5092849;28;20162;-66
2023/02/10 01:44:43;;;;;;;6.70;4.13;;;;;;;;;;5059679;28;20028;-67
2023/02/10 01:47:09;;;;;;;7.13;3.60;;;;;;;;;;5060370;28;20497;-68
2023/02/10 01:49:39;;;;;;;7.17;4.20;;;;;;;;;;5060289;28;20382;-66
2023/02/10 01:52:08;;;;;;;7.10;3.90;;;;;;;;;;5093911;28;20036;-65
2023/02/10 01:54:40;;;;;;;5.70;4.13;;;;;;;;;;5060217;28;20075;-66
2023/02/10 01:57:06;;;;;;;9.40;4.70;;;;;;;;;;5076645;28;20374;-66
2023/02/10 01:59:34;;;;;;;7.27;4.47;;;;;;;;;;5074860;28;20028;-67
2023/02/10 02:02:06;;;;;;;;;;;;;;;;;;5109049;28;20036;-65
2023/02/10 02:04:44;;;;;;;9.03;4.40;;;;;;;;;;5092352;28;19919;-65
2023/02/10 02:07:10;;;;;;;9.07;4.13;;;;;;;;;;5076772;28;20134;-65
2023/02/10 02:09:36;;;;;;;9.13;4.47;;;;;;;;;;5075602;28;20127;-66
2023/02/10 02:12:08;;;;;;;11.33;5.50;;;;;;;;;;5059786;28;20450;-65
2023/02/10 02:14:40;;;;;;;10.20;4.90;;;;;;;;;;5076674;28;20547;-65
2023/02/10 02:17:14;;;;;;;6.70;4.70;;;;;;;;;;5067927;28;20064;-65
2023/02/10 02:22:48;;;;;;;7.90;4.47;;;;;;;;;;5093348;28;20042;-65
2023/02/10 02:25:34;;;;;;;9.33;5.10;;;;;;;;;;5076390;28;20039;-67
2023/02/10 02:28:16;;;;;;;14.27;5.50;;;;;;;;;;5076372;28;20051;-65
2023/02/10 02:30:41;;;;;;;;;;;;;;;;;;5076820;28;20058;-66
2023/02/10 02:33:06;;;;;;;10.07;5.20;;;;;;;;;;5076202;28;20397;-66
2023/02/10 02:35:38;;;;;;;12.57;5.50;;;;;;;;;;5076241;28;20043;-65
2023/02/10 02:38:03;;;;;;;12.60;5.83;;;;;;;;;;5093250;28;20043;-65
2023/02/10 02:40:29;;;;;;;10.30;4.90;;;;;;;;;;5075903;28;20375;-65
2023/02/10 02:42:55;;;;;;;11.97;5.97;;;;;;;;;;5076280;28;20039;-66
2023/02/10 02:45:40;;;;;;;8.90;5.20;;;;;;;;;;5092874;28;20042;-65
2023/02/10 02:48:34;;;;;;;10.03;5.60;;;;;;;;;;5075908;28;20036;-66
2023/02/10 02:51:03;;;;;;;8.60;4.83;;;;;;;;;;5075608;28;20051;-66
2023/02/10 02:53:47;;;;;;;13.43;5.20;;;;;;;;;;5075692;28;20036;-66
2023/02/10 02:56:31;;;;;;;8.40;5.40;;;;;;;;;;5076080;28;20429;-65
2023/02/10 02:59:01;;;;;;;10.70;5.20;;;;;;;;;;5075497;28;20413;-67
2023/02/10 03:01:42;;;;;;;9.10;5.37;;;;;;;;;;5075657;28;20036;-65
2023/02/10 03:04:09;;;;;;;11.38;5.50;;;;;;;;;;5092639;28;20385;-66
2023/02/10 03:06:35;;;;;;;11.67;6.07;;;;;;;;;;5075426;28;20128;-65
2023/02/10 03:09:01;;;;;;;13.63;6.40;;;;;;;;;;5075541;28;20081;-66
2023/02/10 03:11:26;;;;;;;10.33;5.83;;;;;;;;;;5075443;28;20032;-66
2023/02/10 03:13:52;;;;;;;9.43;5.50;;;;;;;;;;5074848;28;20035;-66
2023/02/10 03:16:18;;;;;;;11.30;5.93;;;;;;;;;;5075201;28;20063;-67
2023/02/10 03:18:43;;;;;;;10.93;6.17;;;;;;;;;;5058605;28;20120;-65
2023/02/10 03:21:09;;;;;;;11.30;5.90;;;;;;;;;;5090335;28;20040;-68
2023/02/10 03:23:36;;;;;;;15.23;6.83;;;;;;;;;;5076365;28;20081;-68
2023/02/10 03:26:02;;;;;;;14.77;6.63;;;;;;;;;;5064820;28;20039;-66
2023/02/10 03:28:27;;;;;;;13.03;6.27;;;;;;;;;;5090388;28;20444;-67
2023/02/10 03:30:53;;;;;;;11.93;6.77;;;;;;;;;;5073567;28;20381;-66
2023/02/10 03:33:19;;;;;;;9.47;6.17;;;;;;;;;;5056749;28;20039;-67
2023/02/10 03:35:45;;;;;;;10.77;5.67;;;;;;;;;;5073590;28;20028;-66
2023/02/10 03:38:11;;;;;;;12.23;6.03;;;;;;;;;;5056533;28;20024;-66
2023/02/10 03:40:37;;;;;;;12.63;6.97;;;;;;;;;;5073247;28;20040;-67
2023/02/10 03:43:03;;;;;;;10.07;5.70;;;;;;;;;;5056995;28;20122;-65
2023/02/10 03:45:28;;;;;;;13.47;6.53;;;;;;;;;;5073114;28;20470;-65
2023/02/10 03:47:54;;;;;;;13.60;6.17;;;;;;;;;;5057238;28;20484;-65
2023/02/10 03:50:20;;;;;;;8.33;5.17;;;;;;;;;;5074417;28;20032;-66
2023/02/10 03:52:45;;;;;;;10.97;6.07;;;;;;;;;;5058052;28;20490;-64
2023/02/10 03:55:17;;;;;;;14.47;6.40;;;;;;;;;;5074309;28;20386;-65
2023/02/10 03:57:43;;;;;;;12.00;6.03;;;;;;;;;;5058004;28;20090;-66
2023/02/10 04:00:09;;;;;;;10.20;5.80;;;;;;;;;;5071794;28;20044;-66
2023/02/10 04:02:42;;;;;;;10.50;5.50;;;;;;;;;;5089600;28;20028;-66
2023/02/10 04:05:08;;;;;;;9.50;5.33;;;;;;;;;;5073009;28;20465;-66
2023/02/10 04:07:33;;;;;;;13.30;6.40;;;;;;;;;;5072950;28;20036;-66
2023/02/10 04:10:00;;;;;;;10.60;6.07;;;;;;;;;;5090715;28;20028;-66
2023/02/10 04:12:25;;;;;;;10.63;6.33;;;;;;;;;;5073972;28;20089;-66
2023/02/10 04:14:51;;;;;;;10.23;6.27;;;;;;;;;;5074130;28;20067;-67
2023/02/10 04:17:16;;;;;;;14.73;5.67;;;;;;;;;;5074268;28;20056;-66
2023/02/10 04:19:43;;;;;;;11.87;6.50;;;;;;;;;;5073730;28;20040;-66
2023/02/10 04:22:09;;;;;;;13.27;5.80;;;;;;;;;;5073272;28;20039;-66
2023/02/10 04:24:36;;;;;;;10.60;5.63;;;;;;;;;;5074191;28;20042;-66
2023/02/10 04:27:02;;;;;;;16.30;6.57;;;;;;;;;;5073840;28;20118;-66
2023/02/10 04:29:27;;;;;;;11.77;6.07;;;;;;;;;;5073863;28;20051;-66
2023/02/10 04:31:53;;;;;;;14.63;6.70;;;;;;;;;;5073839;28;20039;-67
2023/02/10 04:34:19;;;;;;;16.73;7.07;;;;;;;;;;5091090;28;20039;-65
2023/02/10 04:36:44;;;;;;;11.97;6.43;;;;;;;;;;5073842;28;20124;-65
2023/02/10 04:39:10;;;;;;;14.33;7.00;;;;;;;;;;5057236;28;20474;-65
2023/02/10 04:41:35;;;;;;;12.20;6.73;;;;;;;;;;5073647;28;20415;-65
2023/02/10 04:44:01;;;;;;;15.67;6.83;;;;;;;;;;5056932;28;20391;-65
2023/02/10 04:46:27;;;;;;;11.87;6.97;;;;;;;;;;5057099;28;20051;-65
2023/02/10 04:48:52;;;;;;;11.67;6.63;;;;;;;;;;5073960;28;20083;-65
2023/02/10 04:51:18;;;;;;;14.60;7.40;;;;;;;;;;5073694;28;20143;-65
2023/02/10 04:53:44;;;;;;;15.07;8.50;;;;;;;;;;5076923;28;20027;-65
2023/02/10 04:56:10;;;;;;;13.13;7.70;;;;;;;;;;5110722;28;20063;-65
2023/02/10 04:58:36;;;;;;;14.37;7.40;;;;;;;;;;5110917;28;20035;-65
2023/02/10 05:01:01;;;;;;;13.40;8.00;;;;;;;;;;5076616;28;20043;-66
2023/02/10 05:03:28;;;;;;;11.07;6.40;;;;;;;;;;5076998;28;20035;-65
2023/02/10 05:05:54;;;;;;;12.57;7.33;;;;;;;;;;5073593;28;20478;-66
2023/02/10 05:08:22;;;;;;;15.70;7.77;;;;;;;;;;5109764;28;20064;-66
2023/02/10 05:10:48;;;;;;;14.77;7.20;;;;;;;;;;5110276;28;20370;-66
2023/02/10 05:13:16;;;;;;;16.77;8.23;;;;;;;;;;5091773;28;20040;-69
2023/02/10 05:15:42;;;;;;;14.73;8.00;;;;;;;;;;5092759;28;20039;-69
2023/02/10 05:18:07;;;;;;;13.93;7.40;;;;;;;;;;5092410;28;20070;-68
2023/02/10 05:20:33;;;;;;;14.67;7.33;;;;;;;;;;5092202;28;20059;-70
2023/02/10 05:22:58;;;;;;;19.40;8.23;;;;;;;;;;5093422;28;20031;-69
2023/02/10 05:25:30;;;;;;;14.80;8.40;;;;;;;;;;5108154;28;20042;-69
2023/02/10 05:27:57;;;;;;;14.87;8.83;;;;;;;;;;5109668;28;20039;-67
2023/02/10 05:30:26;;;;;;;16.67;8.30;;;;;;;;;;5109756;28;20031;-66
2023/02/10 05:32:52;;;;;;;16.17;7.80;;;;;;;;;;5110710;28;20074;-65
2023/02/10 05:35:18;;;;;;;18.30;8.33;;;;;;;;;;5113080;28;20476;-66
2023/02/10 05:37:43;;;;;;;11.00;6.23;;;;;;;;;;5096118;28;20065;-66
2023/02/10 05:40:10;;;;;;;14.43;7.47;;;;;;;;;;5096046;28;20048;-66
2023/02/10 05:42:35;;;;;;;19.70;8.13;;;;;;;;;;5079498;28;20059;-65
2023/02/10 05:45:01;;;;;;;13.03;7.43;;;;;;;;;;5095770;28;20090;-66
2023/02/10 05:47:29;;;;;;;13.10;7.43;;;;;;;;;;5096227;28;20046;-66
2023/02/10 05:49:54;;;;;;;12.30;7.33;;;;;;;;;;5113447;28;20043;-71
2023/02/10 05:52:20;;;;;;;17.67;7.90;;;;;;;;;;5093500;28;20047;-65
2023/02/10 05:54:45;;;;;;;13.87;7.80;;;;;;;;;;5096075;28;20027;-66
2023/02/10 05:57:11;;;;;;;17.33;7.80;;;;;;;;;;5095424;28;20042;-65
2023/02/10 05:59:37;;;;;;;17.10;8.57;;;;;;;;;;5095706;28;20340;-65
2023/02/10 06:02:02;;;;;;;15.97;7.53;;;;;;;;;;5081151;28;20044;-66
2023/02/10 06:04:28;;;;;;;12.50;7.67;;;;;;;;;;5075440;28;20476;-67
2023/02/10 06:06:54;;;;;;;14.67;7.37;;;;;;;;;;5076098;28;20039;-65
2023/02/10 06:09:22;;;;;;;15.40;8.13;;;;;;;;;;5092524;28;20028;-66
2023/02/10 06:11:49;;;;;;;13.90;8.07;;;;;;;;;;5074847;28;20845;-65
2023/02/10 06:14:15;;;;;;;16.43;7.87;;;;;;;;;;5092024;28;20078;-65
2023/02/10 06:16:40;;;;;;;15.57;7.47;;;;;;;;;;5092043;28;20083;-65
2023/02/10 06:19:06;;;;;;;21.27;8.60;;;;;;;;;;5075045;28;20047;-66
2023/02/10 06:21:32;;;;;;;13.33;8.20;;;;;;;;;;5091795;28;20048;-65
2023/02/10 06:23:57;;;;;;;17.77;9.13;;;;;;;;;;5058200;28;20055;-65
2023/02/10 06:26:24;;;;;;;16.10;8.57;;;;;;;;;;5074763;28;20039;-65
2023/02/10 06:28:49;;;;;;;14.80;7.97;;;;;;;;;;5091422;28;20027;-64
2023/02/10 06:31:15;;;;;;;13.43;7.43;;;;;;;;;;5074568;28;20105;-65
2023/02/10 06:33:41;;;;;;;13.20;7.47;;;;;;;;;;5058093;28;20036;-65
2023/02/10 06:36:07;;;;;;;15.80;7.80;;;;;;;;;;5091501;28;20028;-67
2023/02/10 06:38:33;;;;;;;14.20;7.57;;;;;;;;;;5058262;28;20118;-64
2023/02/10 06:40:59;;;;;;;13.60;6.80;;;;;;;;;;5074798;28;20064;-65
2023/02/10 06:43:26;;;;;;;14.67;7.80;;;;;;;;;;5058133;28;20086;-69
2023/02/10 06:45:52;;;;;;;13.50;7.37;;;;;;;;;;5057515;28;20044;-65
2023/02/10 06:48:17;;;;;;;13.90;7.57;;;;;;;;;;5058300;28;20047;-66
2023/02/10 06:50:44;;;;;;;15.03;7.40;;;;;;;;;;5058596;28;20091;-65
2023/02/10 06:53:11;;;;;;;17.17;8.07;;;;;;;;;;5057899;28;20089;-66
2023/02/10 06:55:36;;;;;;;12.77;7.13;;;;;;;;;;5091475;28;20390;-65
2023/02/10 06:58:02;;;;;;;15.03;8.33;;;;;;;;;;5057622;28;20032;-65
2023/02/10 07:00:28;;;;;;;14.03;7.57;;;;;;;;;;5073219;28;20062;-66
2023/02/10 07:02:54;;;;;;;14.87;8.07;;;;;;;;;;5074444;28;20491;-65
2023/02/10 07:05:20;;;;;;;10.27;6.77;;;;;;;;;;5057230;28;20378;-66
2023/02/10 07:07:46;;;;;;;16.17;7.83;;;;;;;;;;5057484;28;20361;-65
2023/02/10 07:10:12;;;;;;;15.47;8.27;;;;;;;;;;5057088;28;20039;-66
2023/02/10 07:12:38;;;;;;;18.60;7.53;;;;;;;;;;5073185;28;20054;-67
2023/02/10 07:15:04;;;;;;;15.33;6.43;;;;;;;;;;5073909;28;20032;-67
2023/02/10 07:17:30;;;;;;;18.37;8.53;;;;;;;;;;5059019;28;20060;-67
2023/02/10 07:19:56;;;;;;;12.63;7.43;;;;;;;;;;5037169;28;20376;-65
2023/02/10 07:22:22;;;;;;;13.17;6.77;;;;;;;;;;5070247;28;20045;-66
2023/02/10 07:24:47;;;;;;;14.93;8.10;;;;;;;;;;5037133;28;20035;-65
2023/02/10 07:27:13;;;;;;;15.57;7.40;;;;;;;;;;5053535;28;20391;-66
2023/02/10 07:29:38;;;;;;;12.67;6.53;;;;;;;;;;5053714;28;20029;-65
2023/02/10 07:32:04;;;;;;;12.93;6.73;;;;;;;;;;5070006;28;20029;-68
2023/02/10 07:34:33;;;;;;;15.47;7.30;;;;;;;;;;5089687;28;20073;-66
2023/02/10 07:36:59;;;;;;;14.07;8.20;;;;;;;;;;5072806;28;20064;-66
2023/02/10 07:39:26;;;;;;;12.73;7.40;;;;;;;;;;5053073;28;20427;-66
2023/02/10 07:41:52;;;;;;;13.90;6.93;;;;;;;;;;5053412;28;20044;-66
2023/02/10 07:44:20;;;;;;;13.95;7.45;;;;;;;;;;5053483;28;20369;-66
2023/02/10 07:46:46;;;;;;;12.30;6.80;;;;;;;;;;5053130;28;20051;-66
2023/02/10 07:49:12;;;;;;;14.52;6.90;;;;;;;;;;5053275;28;20097;-66
2023/02/10 07:51:37;;;;;;;15.40;7.13;;;;;;;;;;5047289;28;20063;-68
2023/02/10 07:54:06;;;;;;;12.18;6.93;;;;;;;;;;5058278;28;20127;-66
2023/02/10 07:56:35;;;;;;;11.43;6.07;;;;;;;;;;5074699;28;20454;-66
2023/02/10 07:59:01;;;;;;;13.10;7.35;;;;;;;;;;5073409;28;20097;-68
2023/02/10 08:01:29;;;;;;;9.00;6.18;;;;;;;;;;5089896;28;20436;-67
2023/02/10 08:03:58;;;;;;;10.60;6.90;;;;;;;;;;5106300;28;20051;-66
2023/02/10 08:06:25;;;;;;;12.52;7.22;;;;;;;;;;5085134;28;20447;-68
2023/02/10 08:08:51;;;;;;;10.45;6.90;;;;;;;;;;5069726;28;20028;-66
2023/02/10 08:11:17;;;;;;;11.45;6.55;;;;;;;;;;5052669;28;20881;-67
2023/02/10 08:13:42;;;;;;;12.25;7.28;;;;;;;;;;5052744;28;20058;-66
2023/02/10 08:16:11;;;;;;;11.10;6.47;;;;;;;;;;5035650;28;20036;-67
2023/02/10 08:18:37;;;;;;;11.90;7.28;;;;;;;;;;5052872;28;20131;-67
2023/02/10 08:21:03;;;;;;;17.40;8.02;;;;;;;;;;5069427;28;20051;-66
2023/02/10 08:23:29;;;;;;;11.93;7.80;;;;;;;;;;5069502;28;20049;-66
2023/02/10 08:25:55;;;;;;;13.00;7.40;;;;;;;;;;5053006;28;20096;-66
2023/02/10 08:28:21;;;;;;;11.45;6.97;;;;;;;;;;5053050;28;20131;-65
2023/02/10 08:30:46;;;;;;;17.25;7.18;;;;;;;;;;5070411;28;20895;-64
2023/02/10 08:33:12;;;;;;;12.23;6.90;;;;;;;;;;5070118;28;20048;-65
2023/02/10 08:35:39;;;;;;;14.20;6.65;;;;;;;;;;5062712;28;20036;-65
2023/02/10 08:38:04;;;;;;;11.00;6.88;;;;;;;;;;5070053;28;20123;-67
2023/02/10 08:40:30;;;;;;;11.88;6.65;;;;;;;;;;5086295;28;20205;-66
2023/02/10 08:42:56;;;;;;;13.80;6.28;;;;;;;;;;5086995;28;20040;-65
2023/02/10 08:45:22;;;;;;;13.05;7.35;;;;;;;;;;5086493;28;20033;-66
2023/02/10 08:47:48;;;;;;;11.55;6.68;;;;;;;;;;5086196;28;20032;-67
2023/02/10 08:50:13;;;;;;;10.27;6.22;;;;;;;;;;5103433;28;20032;-71
2023/02/10 08:52:39;;;;;;;12.05;7.28;;;;;;;;;;5086504;28;20169;-67
2023/02/10 08:55:05;;;;;;;14.35;6.97;;;;;;;;;;5052802;28;20058;-67
2023/02/10 08:57:30;;;;;;;11.80;5.95;;;;;;;;;;5104290;28;20519;-67
2023/02/10 08:59:56;;;;;;;12.52;6.78;;;;;;;;;;5073038;28;20059;-66
2023/02/10 09:02:21;;;;;;;11.23;7.32;;;;;;;;;;5073072;28;20032;-66
2023/02/10 09:04:47;;;;;;;9.57;5.82;;;;;;;;;;5073300;28;20511;-66
2023/02/10 09:07:13;;;;;;;11.98;6.40;;;;;;;;;;5073492;28;20119;-66
2023/02/10 09:09:40;;;;;;;10.73;6.05;;;;;;;;;;5076988;28;20071;-66
2023/02/10 09:12:06;;;;;;;13.55;6.85;;;;;;;;;;5076030;28;20128;-67
2023/02/10 09:14:32;;;;;;;13.65;6.00;;;;;;;;;;5076666;28;20469;-67
2023/02/10 09:16:58;;;;;;;9.88;6.50;;;;;;;;;;5065725;28;20048;-67
2023/02/10 09:19:25;;;;;;;10.07;6.55;;;;;;;;;;5070575;28;20032;-66
2023/02/10 09:21:50;;;;;;;18.42;6.72;;;;;;;;;;5106677;28;20040;-67
2023/02/10 09:24:16;;;;;;;11.20;6.63;;;;;;;;;;5057395;28;20040;-66
2023/02/10 09:26:42;;;;;;;11.60;6.20;;;;;;;;;;5074114;28;20036;-66
2023/02/10 09:29:07;;;;;;;12.25;5.15;;;;;;;;;;5057738;28;20039;-67
2023/02/10 09:31:33;;;;;;;9.30;6.13;;;;;;;;;;5074236;28;20385;-66
2023/02/10 09:33:59;;;;;;;8.93;5.77;;;;;;;;;;5057412;28;20031;-65
2023/02/10 09:36:25;;;;;;;13.03;6.33;;;;;;;;;;5057242;28;20031;-67
2023/02/10 09:38:51;;;;;;;13.07;5.27;;;;;;;;;;5057342;28;20035;-66
2023/02/10 09:41:32;;;;;;;10.87;5.67;;;;;;;;;;5056630;28;20046;-65
2023/02/10 09:43:57;;;;;;;;;;;;;;;;;;5072910;28;20109;-66
2023/02/10 09:46:26;;;;;;;9.47;5.47;;;;;;;;;;5090624;28;19919;-67
2023/02/10 09:49:04;;;;;;;12.60;6.30;;;;;;;;;;5073642;28;20051;-67
2023/02/10 09:51:48;;;;;;;8.93;4.70;;;;;;;;;;5056310;28;20196;-70
2023/02/10 09:54:15;;;;;;;12.93;5.50;;;;;;;;;;5073227;28;20036;-72
2023/02/10 09:56:40;;;;;;;10.23;5.63;;;;;;;;;;5056941;28;20435;-71
2023/02/10 09:59:12;;;;;;;10.33;5.97;;;;;;;;;;5073944;28;20047;-68
2023/02/10 10:01:54;;;;;;;10.32;5.45;;;;;;;;;;5056771;28;20059;-69
2023/02/10 10:04:21;;;;;;;10.33;5.57;;;;;;;;;;5055852;28;20433;-69
2023/02/10 10:06:52;;;;;;;9.07;5.60;;;;;;;;;;5073085;28;20165;-69
2023/02/10 10:09:38;;;;;;;9.83;5.43;;;;;;;;;;5075388;28;20070;-67
2023/02/10 10:12:04;;;;;;;10.60;5.77;;;;;;;;;;5021539;28;20146;-71
2023/02/10 10:14:33;;;;;;;15.53;5.83;;;;;;;;;;5036880;28;20574;-68
2023/02/10 10:17:08;;;;;;;12.80;6.03;;;;;;;;;;5063139;28;20211;-69
2023/02/10 10:19:46;;;;;;;14.50;6.13;;;;;;;;;;5055323;28;20077;-68
2023/02/10 10:22:14;;;;;;;10.27;5.27;;;;;;;;;;5056462;28;20075;-70
2023/02/10 10:24:46;;;;;;;17.33;5.97;;;;;;;;;;5073092;28;20118;-71
2023/02/10 10:27:18;;;;;;;11.00;4.90;;;;;;;;;;5089510;28;20445;-70
2023/02/10 10:30:02;;;;;;;10.33;5.40;;;;;;;;;;5055919;28;20036;-69
2023/02/10 10:32:39;;;;;;;11.20;5.70;;;;;;;;;;5089445;28;20032;-70
2023/02/10 10:35:14;;;;;;;13.43;5.90;;;;;;;;;;5072796;28;20044;-73
2023/02/10 10:37:41;;;;;;;11.93;5.53;;;;;;;;;;5076306;27;20046;-71
2023/02/10 10:40:07;;;;;;;10.70;6.00;;;;;;;;;;5092685;28;20027;-71
2023/02/10 10:42:42;;;;;;;10.10;5.40;;;;;;;;;;5092542;28;20043;-72
2023/02/10 10:45:15;;;;;;;14.10;6.13;;;;;;;;;;5073909;28;20034;-69
2023/02/10 10:48:12;;;;;;;13.93;6.10;;;;;;;;;;5127296;27;20027;-70
2023/02/10 10:50:39;;;;;;;8.50;4.90;;;;;;;;;;5084486;28;20366;-69
2023/02/10 10:53:12;;;;;;;11.17;5.63;;;;;;;;;;5092614;28;20039;-71
2023/02/10 10:55:46;;;;;;;13.57;5.97;;;;;;;;;;5093173;28;20036;-71
2023/02/10 10:58:19;;;;;;;10.83;5.77;;;;;;;;;;5092667;28;20819;-73
2023/02/10 11:00:50;;;;;;;7.77;4.40;;;;;;;;;;5092336;28;20134;-71
2023/02/10 11:03:16;;;;;;;9.77;5.30;;;;;;;;;;5088421;28;20054;-73
2023/02/10 11:05:43;;;;;;;9.67;5.53;;;;;;;;;;5089406;28;20040;-73
2023/02/10 11:08:22;;;;;;;10.80;5.67;;;;;;;;;;5072719;28;20032;-71
2023/02/10 11:10:53;;;;;;;13.17;5.77;;;;;;;;;;5071594;28;20052;-71
2023/02/10 11:13:21;;;;;;;9.57;5.00;;;;;;;;;;5092076;28;20112;-74
2023/02/10 11:15:47;;;;;;;15.27;6.63;;;;;;;;;;5097327;28;20101;-75
2023/02/10 11:18:18;;;;;;;13.33;6.73;;;;;;;;;;5076224;27;20038;-74
2023/02/10 11:20:51;;;;;;;9.90;5.38;;;;;;;;;;5093837;27;20087;-74
2023/02/10 11:23:17;;;;;;;15.00;5.77;;;;;;;;;;5090287;27;20122;-72
2023/02/10 11:25:47;;;;;;;15.27;6.00;;;;;;;;;;5089916;27;20122;-71
2023/02/10 11:28:19;;;;;;;12.00;5.63;;;;;;;;;;5091228;27;20034;-77
2023/02/10 11:30:47;;;;;;;10.80;5.80;;;;;;;;;;5091576;27;20051;-71
2023/02/10 11:33:20;;;;;;;14.43;6.63;;;;;;;;;;5075729;27;20132;-70
2023/02/10 11:35:52;;;;;;;12.33;5.90;;;;;;;;;;5094237;27;20035;-69
2023/02/10 11:38:23;;;;;;;8.65;4.88;;;;;;;;;;5093731;27;20381;-70
2023/02/10 11:40:48;;;;;;;13.02;6.20;;;;;;;;;;5093357;27;20061;-70
2023/02/10 11:43:14;;;;;;;11.53;5.47;;;;;;;;;;5089457;27;20032;-74
2023/02/10 11:45:50;;;;;;;9.73;5.80;;;;;;;;;;5069254;28;20031;-71
2023/02/10 11:48:20;;;;;;;11.97;5.80;;;;;;;;;;5092245;27;20031;-70
2023/02/10 11:53:37;;;;;;;12.70;6.03;;;;;;;;;;5000888;27;1462794;-70
2023/02/10 11:56:15;;;;;;;10.77;5.83;;;;;;;;;;4987839;28;20384;-71
2023/02/10 11:59:03;;;;;;;12.93;6.13;;;;;;;;;;5007390;28;20487;-70
2023/02/10 12:01:38;;;;;;;9.73;5.80;;;;;;;;;;5007251;28;20095;-69
2023/02/10 12:04:22;;;;;;;22.50;6.40;;;;;;;;;;5008450;28;20495;-69
2023/02/10 12:07:08;;;;;;;11.80;5.10;;;;;;;;;;5008514;28;20136;-72
2023/02/10 12:09:38;;;;;;;9.30;5.53;;;;;;;;;;4963770;28;20045;-71
2023/02/10 12:12:23;;;;;;;9.20;6.10;;;;;;;;;;4990795;28;20590;-72
2023/02/10 12:15:07;;;;;;;13.97;5.67;;;;;;;;;;4990882;28;20060;-69
2023/02/10 12:17:51;;;;;;;9.53;5.40;;;;;;;;;;4990098;28;20037;-70
2023/02/10 12:20:36;;;;;;;10.87;5.83;;;;;;;;;;4990968;28;20040;-71
2023/02/10 12:23:22;;;;;;;12.33;5.80;;;;;;;;;;4991354;28;20042;-71
2023/02/10 12:26:04;;;;;;;10.07;5.27;;;;;;;;;;4991113;28;20033;-73
2023/02/10 12:28:33;;;;;;;16.37;5.60;;;;;;;;;;4993576;28;20034;-68
2023/02/10 12:31:04;;;;;;;13.57;6.33;;;;;;;;;;4978521;28;20045;-69
2023/02/10 12:33:42;;;;;;;11.60;6.00;;;;;;;;;;4978326;28;20049;-68
2023/02/10 12:36:26;;;;;;;12.80;6.00;;;;;;;;;;4977966;28;20033;-70
2023/02/10 12:38:57;;;;;;;12.13;5.93;;;;;;;;;;4978185;28;20466;-69
2023/02/10 12:41:22;;;;;;;14.98;6.50;;;;;;;;;;5010580;28;20033;-69
2023/02/10 12:44:00;;;;;;;12.87;5.40;;;;;;;;;;4994309;28;20051;-68
2023/02/10 12:46:30;;;;;;;12.10;5.83;;;;;;;;;;4977674;28;20038;-68
2023/02/10 12:48:55;;;;;;;13.80;6.60;;;;;;;;;;4977801;28;20030;-70
2023/02/10 12:51:24;;;;;;;12.63;6.40;;;;;;;;;;4978006;28;20165;-69
2023/02/10 12:53:52;;;;;;;12.93;6.17;;;;;;;;;;4974470;28;20061;-69
2023/02/10 12:56:47;;;;;;;8.73;5.50;;;;;;;;;;4990065;28;20149;-69
2023/02/10 12:59:16;;;;;;;10.77;5.40;;;;;;;;;;4982016;28;20204;-69
2023/02/10 13:01:54;;;;;;;11.47;6.13;;;;;;;;;;4974494;28;20038;-69
2023/02/10 13:04:19;;;;;;;13.17;6.67;;;;;;;;;;4980802;28;20049;-69
2023/02/10 13:06:57;;;;;;;14.20;5.77;;;;;;;;;;4977302;28;20035;-68
2023/02/10 13:09:26;;;;;;;12.13;5.70;;;;;;;;;;4977303;28;20038;-69
2023/02/10 13:12:04;;;;;;;11.97;5.57;;;;;;;;;;4992674;28;20400;-68
2023/02/10 13:14:30;;;;;;;15.73;5.80;;;;;;;;;;4993393;28;20038;-69
2023/02/10 13:16:57;;;;;;;15.03;5.70;;;;;;;;;;4961765;28;20501;-69
2023/02/10 13:19:27;;;;;;;12.60;6.97;;;;;;;;;;4993582;28;20038;-69
2023/02/10 13:22:08;;;;;;;19.63;7.53;;;;;;;;;;4961120;28;20045;-69
2023/02/10 13:24:35;;;;;;;;;;;;;;;;;;4961437;28;20057;-68
2023/02/10 13:27:20;;;;;;;13.87;6.63;;;;;;;;;;4977274;28;19964;-69
2023/02/10 13:29:55;;;;;;;14.70;6.33;;;;;;;;;;4977252;28;20477;-69
2023/02/10 13:32:38;;;;;;;17.23;6.47;;;;;;;;;;4976541;28;20485;-70
2023/02/10 13:35:06;;;;;;;14.70;6.63;;;;;;;;;;4977054;28;20062;-71
2023/02/10 13:37:58;;;;;;;13.97;6.53;;;;;;;;;;4960875;28;20034;-72
2023/02/10 13:40:28;;;;;;;12.40;7.03;;;;;;;;;;4974711;28;20046;-70
2023/02/10 13:42:56;;;;;;;13.80;6.33;;;;;;;;;;4977091;28;20049;-71
2023/02/10 13:45:24;;;;;;;14.53;6.67;;;;;;;;;;4960644;28;20040;-73
2023/02/10 13:47:55;;;;;;;16.10;5.57;;;;;;;;;;4960928;28;20153;-70
2023/02/10 13:50:24;;;;;;;15.50;6.30;;;;;;;;;;4959835;28;20457;-71
2023/02/10 13:52:57;;;;;;;12.47;6.13;;;;;;;;;;4971536;28;20426;-70
2023/02/10 13:55:35;;;;;;;9.77;5.63;;;;;;;;;;4940784;28;20042;-71
2023/02/10 13:58:07;;;;;;;12.23;6.33;;;;;;;;;;4958486;28;20375;-72
2023/02/10 14:00:43;;;;;;;13.20;6.50;;;;;;;;;;4958128;28;20042;-73
2023/02/10 14:03:10;;;;;;;13.97;6.00;;;;;;;;;;4971806;28;20042;-73
2023/02/10 14:05:51;;;;;;;12.67;6.30;;;;;;;;;;4974343;28;20069;-73
2023/02/10 14:08:29;;;;;;;13.20;6.43;;;;;;;;;;4966373;28;20100;-72
2023/02/10 14:11:13;;;;;;;17.93;7.07;;;;;;;;;;4957993;28;20034;-72
2023/02/10 14:13:39;;;;;;;17.07;7.03;;;;;;;;;;4970319;28;20055;-66
2023/02/10 14:16:07;;;;;;;9.47;5.77;;;;;;;;;;4955647;28;20058;-73
2023/02/10 14:18:37;;;;;;;13.50;6.37;;;;;;;;;;4958784;28;20096;-76
2023/02/10 14:21:11;;;;;;;15.18;6.43;;;;;;;;;;4975822;28;20389;-73
2023/02/10 14:23:43;;;;;;;14.33;5.90;;;;;;;;;;4976280;28;20043;-70
2023/02/10 14:26:18;;;;;;;12.67;6.30;;;;;;;;;;4988776;28;20113;-72
2023/02/10 14:28:48;;;;;;;11.23;5.87;;;;;;;;;;4960120;28;20041;-71
2023/02/10 14:31:17;;;;;;;20.53;8.77;;;;;;;;;;4959354;28;20062;-69
2023/02/10 14:33:51;;;;;;;15.73;7.33;;;;;;;;;;4975485;28;20374;-69
2023/02/10 14:36:18;;;;;;;12.17;5.53;;;;;;;;;;4959685;28;20057;-70
2023/02/10 14:38:52;;;;;;;15.77;6.30;;;;;;;;;;4959799;28;20027;-70
2023/02/10 14:41:17;;;;;;;18.23;8.27;;;;;;;;;;4940123;28;20076;-72
2023/02/10 14:43:43;;;;;;;14.57;6.70;;;;;;;;;;4957238;28;20065;-70
2023/02/10 14:46:17;;;;;;;14.60;6.57;;;;;;;;;;4972409;28;20053;-73
2023/02/10 14:48:45;;;;;;;11.93;6.20;;;;;;;;;;4973260;28;20041;-73
2023/02/10 14:51:22;;;;;;;12.43;5.80;;;;;;;;;;4987988;28;20137;-72